• Join FlightAware (Why Join?)
  • Login
  • US Flag GB Flag 
13:43 EDT


 

Airport Tracker/Info


-or-


 

Live Flight TrackerFlight Track Log ✈ JBU1329 ✈ 24-Apr-2013 ✈ KBOS - KBWI

Flight Track Log - Related Links

Times and Time Zones

All times are in EDT time to prevent confusion due to time zone crossing. See the JBU1329 flight status page for this flight to view local times or setup timezone preferences in your user account.

Time Position Orientation Groundspeed Altitude Reporting Facility
EDT Latitude Longitude Course Direction KTS MPH feet Rate Location/Type
08:50 42.3500 -71.0167 270° West 134 154 700  Level KA90
08:50 42.3333 -71.0500 236° Southwest 184 212 1,600 2,340 Climbing KA90
08:52 42.2600 -71.1861 234° Southwest 241 277 6,800 2,760 Climbing Boston Center
08:53 42.2893 -70.7328 228° Southwest  Level FlightAware Approximate
08:53 42.2300 -71.2850 248° West 264 304 9,900  Level Boston Center
08:54 42.2261 -70.8335 240° Southwest  Level FlightAware Approximate
08:54 42.1956 -71.3947 247° West 298 343 11,700  Level Boston Center
08:55 42.1833 -70.9502 270° West  Level FlightAware Approximate
08:55 42.1592 -71.5214 249° West 342 394 14,500  Level Boston Center
08:56 42.1308 -71.6506 254° West 361 415 17,600 2,700 Climbing Boston Center
08:57 42.1047 -71.7908 256° West 373 429 20,000 2,340 Climbing Boston Center
08:58 42.0803 -71.9253 256° West 378 435 22,300 1,920 Climbing Boston Center
08:59 42.0539 -72.0711 256° West 383 441 23,900 1,680 Climbing Boston Center
09:00 42.0292 -72.2164 257° West 395 455 25,700 1,380 Climbing Boston Center
09:01 42.0003 -72.3731 256° West 415 478 26,700 1,200 Climbing Boston Center
09:02 41.9689 -72.5322 255° West 429 494 28,200 1,560 Climbing Boston Center
09:03 41.9417 -72.6828 256° West 429 494 29,900 1,500 Climbing Boston Center
09:04 41.9100 -72.8389 255° West 429 494 31,200 1,020 Climbing Boston Center
09:05 41.8697 -72.9892 250° West 429 494 32,000 360 Climbing Boston Center
09:06 41.7833 -73.1389 232° Southwest 446 513 32,000  Level Boston Center
09:07 41.7056 -73.2714 232° Southwest 446 513 32,000  Level Boston Center
09:08 41.6314 -73.4011 233° Southwest 446 513 32,000  Level Boston Center
09:10 41.5044 -73.6078 231° Southwest 428 493 32,000  Level New York Center
09:11 41.4122 -73.7144 221° Southwest 428 493 32,000  Level New York Center
09:12 41.3222 -73.8183 221° Southwest 434 499 32,000  Level New York Center
09:13 41.2258 -73.9242 220° Southwest 444 511 32,000  Level New York Center
09:14 41.1311 -74.0300 220° Southwest 444 511 32,000 -120 Level New York Center
09:15 41.0389 -74.1328 220° Southwest 444 511 31,800 -1,020 Descending New York Center
09:16 40.9442 -74.2325 219° Southwest 446 513 30,000 -1,800 Descending New York Center
09:17 40.8539 -74.3319 220° Southwest 440 506 28,200 -1,020 Descending New York Center
09:18 40.7672 -74.4397 223° Southwest 435 501 28,000 -120 Descending New York Center
09:19 40.6922 -74.5644 232° Southwest 435 501 28,000 -840 Level New York Center
09:20 40.6153 -74.6886 231° Southwest 440 506 26,400 -1,680 Descending New York Center
09:21 40.5383 -74.8100 230° Southwest 440 506 24,700 -1,500 Descending New York Center
09:22 40.4639 -74.9147 227° Southwest 423 487 23,400 -840 Descending New York Center
09:23 40.3936 -75.0139 227° Southwest 397 457 23,000 -600 Descending New York Center
09:24 40.3233 -75.1103 226° Southwest 385 443 22,300 -1,200 Descending New York Center
09:25 40.2550 -75.2094 228° Southwest 379 436 20,700 -1,680 Descending New York Center
09:26 40.1761 -75.3131 225° Southwest 373 429 19,000 -1,380 Descending New York Center
09:27 40.1122 -75.4039 227° Southwest 356 410 18,000 -540 Descending New York Center
09:28 40.0525 -75.4867 227° Southwest 356 410 18,000 -60 Level New York Center
09:29 39.9822 -75.5794 225° Southwest 351 404 17,900 -480 Descending New York Center
09:30 39.9244 -75.6622 228° Southwest 351 404 17,100 -420 Descending New York Center
09:31 39.8725 -75.7586 235° Southwest 321 369 17,100 -360 Level New York Center
09:33 39.8000 -75.8833 233° Southwest 295 339 16,200 -1,020 Descending Potomac TRACON
09:34 39.7667 -75.9667 243° Southwest 288 331 14,700 -1,680 Descending Potomac TRACON
09:35 39.7167 -76.0667 237° Southwest 274 315 12,900 -1,380 Descending Potomac TRACON
09:36 39.6833 -76.1333 237° Southwest 272 313 12,000 -480 Descending Potomac TRACON
09:37 39.6333 -76.2167 232° Southwest 269 310 12,000 -720 Level Potomac TRACON
09:38 39.5833 -76.3000 232° Southwest 264 304 10,600 -1,740 Descending Potomac TRACON
09:39 39.5500 -76.3833 243° Southwest 268 308 8,500 -1,800 Descending Potomac TRACON
09:40 39.5167 -76.4500 237° Southwest 260 299 7,000 -1,500 Descending Potomac TRACON
09:41 39.4833 -76.5167 237° Southwest 254 292 5,700 -1,080 Descending Potomac TRACON
09:42 39.4333 -76.6000 232° Southwest 249 287 5,000 -900 Descending Potomac TRACON
09:42 39.4000 -76.6667 237° Southwest 248 285 4,100 -540 Descending Potomac TRACON
09:43 39.3667 -76.7333 237° Southwest 219 252 4,000 -60 Descending Potomac TRACON
09:44 39.3333 -76.8000 237° Southwest 204 235 4,000 -360 Level Potomac TRACON
09:45 39.2833 -76.8333 207° Southwest 215 247 3,300 -540 Descending Potomac TRACON
09:46 39.2333 -76.8500 194° South 208 239 3,000 -660 Descending Potomac TRACON
09:47 39.1833 -76.8167 153° Southeast 219 252 2,000 -900 Descending Potomac TRACON
09:48 39.1833 -76.7500 90° East 172 198 1,200 -840 Descending Potomac TRACON
09:49 39.1833 -76.7000 90° East 136 157 500 -720 Descending Potomac TRACON